Xinfa Hai — BOCD — position and weather

sailwx.info

Track history (hours):
 
Tides and Currents Weather Stations Pressure Air Temp Water Temp Dewpoint Dewpoint Depression Visibility Wind Speed Wind Dir Waves Ship Positions

Xinfa Hai

Last reported at 2018-Jun-20 09:10 UTC. Time now 2018-Jun-22 20:22 UTC.
Position N 40°03' E 121°34'.

Length 289 m; draft 12.3 m.

Type: Cargo ship. MMSI: 413017000.

Date/timePositionNaut miles runAvg speedWind from/ knotsBaromVisibWave heightAir tempDewpointWater temp
2018-Jun-20 09:10N 40°03' E 121°34'  
2018-Jun-12 13:25N 31°18' E 123°22'813.5
2018-Jun-12 12:49N 31°10' E 123°21'413.4
2018-Jun-12 12:30N 31°06' E 123°20'713.2
2018-Jun-12 11:59N 30°59' E 123°20'813.3
2018-Jun-12 11:24N 30°52' E 123°20'3012.0
2018-Jun-12 08:53N 30°21' E 123°20'411.5
2018-Jun-12 08:30N 30°17' E 123°20'510.1
2018-Jun-12 08:00N 30°12' E 123°18'  
Track history (hours):
 
Tides and Currents Weather Stations Pressure Air Temp Water Temp Dewpoint Dewpoint Depression Visibility Wind Speed Wind Dir Waves Ship Positions

Xinfa Hai

Last reported at 2018-Jun-20 09:10 UTC. Time now 2018-Jun-22 20:22 UTC.
Position N 40°03' E 121°34'.

Length 289 m; draft 12.3 m.

Type: Cargo ship. MMSI: 413017000.

Date/timePositionNaut miles runAvg speedWind from/ knotsBaromVisibWave heightAir tempDewpointWater temp
2018-Jun-20 09:10N 40°03' E 121°34'  
2018-Jun-12 13:25N 31°18' E 123°22'813.5
2018-Jun-12 12:49N 31°10' E 123°21'413.4
2018-Jun-12 12:30N 31°06' E 123°20'713.2
2018-Jun-12 11:59N 30°59' E 123°20'813.3
2018-Jun-12 11:24N 30°52' E 123°20'3012.0
2018-Jun-12 08:53N 30°21' E 123°20'411.5
2018-Jun-12 08:30N 30°17' E 123°20'510.1
2018-Jun-12 08:00N 30°12' E 123°18'  

Dump ship's entire track history